Time;durP1;ratioP1;P1;durP2;ratioP2;P2;SDS_P1;SDS_P2;PMS_P1;PMS_P2;Temp;Humidity;BMP_temperature;BMP_pressure;BME280_temperature;BME280_humidity;BME280_pressure;Samples;Min_cycle;Max_cycle;Signal;HPM_P1;HPM_P2
2022/11/13 05:09:19;;;;;;;9.18;7.35;;;8.10;99.90;;;;;;6312992;22;20216;-82
2022/11/13 06:50:48;;;;;;;;;;;;;;;;;;;;;
2022/11/13 06:53:57;;;;;;;;;;;;;;;;;;;;;
2022/11/13 07:04:07;;;;;;;8.85;6.45;;;8.10;99.90;;;;;;6297161;22;20180;-84
2022/11/13 07:10:58;;;;;;;;;;;;;;;;;;;;;
2022/11/13 09:54:21;;;;;;;;;;;;;;;;;;;;;
2022/11/13 09:57:07;;;;;;;4.30;2.90;;;17.00;97.00;;;;;;6229843;23;20389;-83
2022/11/13 10:07:47;;;;;;;6.47;3.60;;;16.50;99.20;;;;;;6109313;23;20886;-83
2022/11/13 10:10:51;;;;;;;4.70;3.50;;;16.30;99.90;;;;;;6131593;22;20382;-81
2022/11/13 10:13:48;;;;;;;3.50;3.03;;;16.20;99.90;;;;;;6245005;22;20407;-82
2022/11/13 10:16:56;;;;;;;;;;;;;;;;;;;;;
2022/11/13 10:30:28;;;;;;;;;;;;;;;;;;;;;
2022/11/13 10:33:50;;;;;;;;;;;;;;;;;;;;;
2022/11/13 10:51:24;;;;;;;5.00;3.57;;;16.30;99.90;;;;;;6096536;23;20545;-82
2022/11/13 12:39:43;;;;;;;;;;;;;;;;;;;;;
2022/11/13 12:46:33;;;;;;;;;;;;;;;;;;;;;
2022/11/13 12:49:35;;;;;;;3.70;2.10;;;28.20;91.20;;;;;;6244057;22;20387;-82
2022/11/13 12:52:54;;;;;;;;;;;;;;;;;;;;;
2022/11/13 12:56:00;;;;;;;;;;;;;;;;;;;;;
2022/11/13 12:58:59;;;;;;;8.07;2.70;;;28.30;90.60;;;;;;6273292;22;20448;-81
2022/11/13 13:05:34;;;;;;;4.07;1.60;;;28.20;90.80;;;;;;6247778;22;20383;-82
2022/11/13 13:14:42;;;;;;;15.00;2.70;;;27.90;88.60;;;;;;6224485;22;20902;-83
2022/11/13 13:24:04;;;;;;;;;;;;;;;;;;;;;
2022/11/13 13:30:30;;;;;;;;;;;;;;;;;;;;;
2022/11/13 13:33:39;;;;;;;;;;;;;;;;;;;;;
2022/11/13 13:40:14;;;;;;;;;;;;;;;;;;;;;
2022/11/13 13:43:38;;;;;;;5.23;2.43;;;26.90;83.50;;;;;;6281454;22;20423;-82
2022/11/13 13:46:15;;;;;;;8.10;2.60;;;26.80;83.40;;;;;;6279830;22;20426;-83
2022/11/13 13:52:41;;;;;;;7.40;2.63;;;26.30;81.40;;;;;;6272835;22;20403;-82
2022/11/13 13:56:09;;;;;;;14.07;2.73;;;26.10;80.00;;;;;;6277636;22;20774;-82
2022/11/13 13:59:21;;;;;;;10.60;3.67;;;25.80;78.40;;;;;;6251100;22;21081;-83
2022/11/13 14:02:56;;;;;;;7.87;2.00;;;25.40;76.80;;;;;;6284255;22;20387;-83
2022/11/13 14:05:41;;;;;;;5.30;2.60;;;25.10;75.70;;;;;;6272170;22;21106;-83
2022/11/13 14:08:27;;;;;;;9.40;2.60;;;25.10;76.20;;;;;;6281116;22;20413;-82
2022/11/13 14:11:29;;;;;;;;;;;;;;;;;;;;;
2022/11/13 14:24:04;;;;;;;;;;;;;;;;;;;;;
2022/11/13 14:26:52;;;;;;;7.40;2.50;;;25.20;81.90;;;;;;6274963;22;20382;-82
2022/11/13 14:30:29;;;;;;;;;;;;;;;;;;;;;
2022/11/13 14:33:10;;;;;;;9.43;3.20;;;25.00;81.10;;;;;;6248139;22;21042;-80
2022/11/13 14:35:41;;;;;;;8.73;2.70;;;24.90;82.00;;;;;;6275035;22;20376;-80
2022/11/13 14:38:25;;;;;;;10.03;3.20;;;24.80;82.50;;;;;;6277196;22;20440;-78
2022/11/13 14:41:11;;;;;;;8.80;3.13;;;24.70;82.00;;;;;;6276277;22;20435;-79
2022/11/13 14:43:49;;;;;;;8.83;2.40;;;24.70;81.60;;;;;;6275972;22;20363;-79
2022/11/13 14:46:47;;;;;;;;;;;;;;;;;;;;;
2022/11/13 14:49:28;;;;;;;6.97;3.00;;;24.30;81.50;;;;;;6277716;22;20442;-79
2022/11/13 14:52:09;;;;;;;7.50;2.00;;;24.10;81.40;;;;;;6277073;22;20446;-78
2022/11/13 14:54:57;;;;;;;10.60;2.17;;;24.00;83.00;;;;;;6277852;22;20895;-80
2022/11/13 14:57:23;;;;;;;5.93;2.93;;;23.90;81.80;;;;;;6276651;22;20731;-80
2022/11/13 15:00:09;;;;;;;6.57;3.00;;;23.70;81.90;;;;;;6277435;22;20419;-80
2022/11/13 15:02:43;;;;;;;6.73;2.63;;;23.60;81.30;;;;;;6277498;22;20188;-78
2022/11/13 15:05:27;;;;;;;10.70;2.43;;;23.40;81.40;;;;;;6278188;22;20442;-81
2022/11/13 15:07:54;;;;;;;5.77;2.13;;;23.10;81.00;;;;;;6274632;22;20425;-80
2022/11/13 15:10:32;;;;;;;9.20;2.90;;;22.80;80.20;;;;;;6275229;22;20389;-80
2022/11/13 15:13:00;;;;;;;6.50;2.63;;;22.50;78.30;;;;;;6276050;22;20397;-79
2022/11/13 15:15:46;;;;;;;4.93;2.03;;;21.90;76.70;;;;;;6274371;22;20802;-80
2022/11/13 15:18:23;;;;;;;6.10;2.80;;;21.40;74.60;;;;;;6276880;22;20434;-78
2022/11/13 15:20:51;;;;;;;3.20;2.20;;;21.00;73.40;;;;;;6274861;22;20351;-79
2022/11/13 15:23:24;;;;;;;7.10;3.00;;;20.60;72.50;;;;;;6274894;22;20410;-78
2022/11/13 15:25:59;;;;;;;3.30;2.30;;;20.30;71.50;;;;;;6275162;22;20363;-81
2022/11/13 15:28:30;;;;;;;4.50;2.50;;;20.00;72.50;;;;;;6271929;22;20829;-79
2022/11/13 15:31:03;;;;;;;2.50;2.30;;;19.70;71.90;;;;;;6278849;22;20378;-84
2022/11/13 15:37:07;;;;;;;4.30;2.80;;;19.20;72.90;;;;;;6276668;22;20392;-85
2022/11/13 15:40:26;;;;;;;5.00;2.30;;;19.00;72.90;;;;;;6281509;22;20547;-87
2022/11/13 15:43:30;;;;;;;;;;;;;;;;;;;;;
2022/11/13 15:46:04;;;;;;;4.10;2.50;;;18.40;71.50;;;;;;6279575;22;20456;-83
2022/11/13 15:49:14;;;;;;;4.20;2.93;;;18.20;71.10;;;;;;6255598;22;20465;-83
2022/11/13 15:52:04;;;;;;;5.13;3.20;;;18.00;72.40;;;;;;6273553;22;20422;-83
2022/11/13 15:55:09;;;;;;;;;;;;;;;;;;;;;
2022/11/13 15:58:08;;;;;;;;;;;;;;;;;;;;;
2022/11/13 16:00:44;;;;;;;;;;;;;;;;;;;;;
2022/11/13 16:03:30;;;;;;;3.57;2.90;;;17.20;71.30;;;;;;6280140;22;20502;-82
2022/11/13 16:06:13;;;;;;;4.23;2.50;;;17.00;72.10;;;;;;6221289;23;20368;-83
2022/11/13 16:09:07;;;;;;;3.30;2.53;;;16.90;72.40;;;;;;6223069;23;20369;-82
2022/11/13 16:11:38;;;;;;;3.97;2.47;;;16.80;74.00;;;;;;6221846;23;20890;-82
2022/11/13 16:14:18;;;;;;;3.70;2.90;;;16.70;74.40;;;;;;6249555;23;20353;-83
2022/11/13 16:17:05;;;;;;;;;;;;;;;;;;;;;
2022/11/13 16:19:56;;;;;;;;;;;;;;;;;;;;;
2022/11/13 16:26:19;;;;;;;3.40;2.03;;;16.30;77.50;;;;;;6244409;23;20384;-82
2022/11/13 16:29:44;;;;;;;;;;;;;;;;;;;;;
2022/11/13 16:36:30;;;;;;;4.57;3.00;;;15.90;80.20;;;;;;6137889;23;20386;-82
2022/11/13 16:43:06;;;;;;;;;;;;;;;;;;;;;
2022/11/13 16:56:52;;;;;;;18.13;12.30;;;15.30;83.30;;;;;;6184285;23;20435;-83
2022/11/13 17:00:10;;;;;;;;;;;;;;;;;;;;;
2022/11/13 17:02:46;;;;;;;34.90;22.10;;;15.10;85.20;;;;;;6210924;23;20527;-83
2022/11/13 17:05:45;;;;;;;66.20;44.33;;;15.00;86.00;;;;;;6219142;23;20387;-86
2022/11/13 17:09:02;;;;;;;;;;;;;;;;;;;;;
2022/11/13 17:18:16;;;;;;;;;;;;;;;;;;;;;
2022/11/13 17:42:30;;;;;;;;;;;;;;;;;;;;;
2022/11/13 17:49:22;;;;;;;;;;;;;;;;;;;;;
2022/11/13 17:52:14;;;;;;;15.70;12.37;;;13.40;96.10;;;;;;6012172;23;20932;-82
2022/11/13 17:55:06;;;;;;;;;;;;;;;;;;;;;
2022/11/13 18:01:52;;;;;;;;;;;;;;;;;;;;;
2022/11/13 18:21:23;;;;;;;13.23;10.37;;;12.70;99.90;;;;;;6127021;23;20741;-82
2022/11/13 19:19:23;;;;;;;;;;;;;;;;;;;;;
